VIAR/ATQ METAR and TAF weather

Enter ICAO airport designator
Station Type Date Time Source
VIAR METAR 2019/10/23 08:00 UTC NOAA

VIAR 230800Z 28005KT 3500 HZ FEW040 29/17 Q1010 NOSIG


Station Type Date Time Source
VIAR Decoded METAR 2019/10/23 08:00 UTC NOAA

Amritsar, India (VIAR) 31-38N 074-52E 234M
Oct 23, 2019 - 04:00 AM EDT / 2019.10.23 0800 UTC
Wind: from the W (280 degrees) at 6 MPH (5 KT):0
Visibility: 2 mile(s):0
Sky conditions: mostly clear
Weather: haze
Temperature: 84 F (29 C)
Dew Point: 62 F (17 C)
Relative Humidity: 48%
Pressure (altimeter): 29.83 in. Hg (1010 hPa)
ob: VIAR 230800Z 28005KT 3500 HZ FEW040 29/17 Q1010 NOSIG
cycle: 8

Station Type Date Time Source
VIAR TAF 2019/10/23 06:00 UTC NOAA

TAF VIAR 230500Z 2306/2412 23005KT 2000 HZ FEW100
BECMG 2308/2309 23007KT 4000 HZ FEW035
BECMG 2309/2313 FEW040CB
BECMG 2313/2315 VRB02KT 3000 HZ
BECMG 2318/2320 00000KT 2500 BR
BECMG 2323/2324 VRB02KT 1000 BR FEW100
BECMG 2405/2407 VRB02KT 3000 HZ
BECMG 2408/2409 20006KT 4000 HZ SCT035
BECMG 2409/2412 FEW040CB

Example: see airport list